Time;durP1;ratioP1;P1;durP2;ratioP2;P2;SDS_P1;SDS_P2;PMS_P1;PMS_P2;Temp;Humidity;BMP_temperature;BMP_pressure;BME280_temperature;BME280_humidity;BME280_pressure;Samples;Min_cycle;Max_cycle;Signal;HPM_P1;HPM_P2
2023/09/25 08:02:22;;;;;;;;;;;;;;;5.88;100.00;100335.06;4944804;28;20092;-82
2023/09/25 08:04:48;;;;;;;;;;;;;;;5.94;100.00;100334.97;4964241;28;19962;-80
2023/09/25 08:07:13;;;;;;;;;;;;;;;6.07;100.00;100334.81;4955790;28;19965;-81
2023/09/25 08:09:39;;;;;;;;;;;;;;;6.00;100.00;100328.78;4965601;28;20384;-80
2023/09/25 08:12:05;;;;;;;;;;;;;;;5.98;100.00;100323.56;4965529;28;19926;-86
2023/09/25 08:14:30;;;;;;;;;;;;;;;6.05;100.00;100321.69;4963620;28;20289;-80
2023/09/25 08:16:55;;;;;;;;;;;;;;;6.15;100.00;100325.91;4965072;28;20270;-81
2023/09/25 08:19:22;;;;;;;;;;;;;;;5.98;100.00;100335.81;4965523;28;19918;-80
2023/09/25 08:21:48;;;;;;;;;;;;;;;6.16;100.00;100335.53;4965183;28;19918;-80
2023/09/25 08:24:13;;;;;;;;;;;;;;;6.07;100.00;100332.19;4955325;28;19922;-81
2023/09/25 08:26:39;;;;;;;;;;;;;;;6.08;100.00;100334.81;4965289;28;20392;-80
2023/09/25 08:29:05;;;;;;;;;;;;;;;5.96;100.00;100327.06;4963878;28;20109;-80
2023/09/25 08:31:31;;;;;;;;;;;;;;;5.99;100.00;100333.16;4965637;28;19965;-80
2023/09/25 08:33:57;;;;;;;;;;;;;;;6.14;100.00;100329.44;4964844;28;19922;-81
2023/09/25 08:36:22;;;;;;;;;;;;;;;6.11;100.00;100328.59;4965577;28;19918;-83
2023/09/25 08:38:47;;;;;;;;;;;;;;;6.02;100.00;100331.41;4965036;28;19925;-81
2023/09/25 08:41:13;;;;;;;;;;;;;;;6.08;100.00;100328.66;4964495;28;19964;-81
2023/09/25 08:43:40;;;;;;;;;;;;;;;6.00;100.00;100340.16;4964353;28;19925;-83
2023/09/25 08:46:06;;;;;;;;;;;;;;;6.13;100.00;100342.63;4964887;28;20012;-81
2023/09/25 08:48:31;;;;;;;;;;;;;;;6.15;100.00;100341.69;4965663;28;20310;-80
2023/09/25 08:50:57;;;;;;;;;;;;;;;6.33;100.00;100332.66;4964630;28;19918;-82
2023/09/25 08:53:22;;;;;;;;;;;;;;;6.21;100.00;100342.47;4955310;28;19969;-81
2023/09/25 08:55:49;;;;;;;;;;;;;;;6.09;100.00;100333.03;4955182;28;19918;-82
2023/09/25 08:58:14;;;;;;;;;;;;;;;6.16;100.00;100329.41;4964133;28;20383;-81
2023/09/25 09:00:40;;;;;;;;;;;;;;;6.16;100.00;100326.78;4953445;28;19918;-81
2023/09/25 09:03:06;;;;;;;;;;;;;;;6.08;100.00;100326.00;4954634;28;19988;-81
2023/09/25 09:05:31;;;;;;;;;;;;;;;6.09;100.00;100322.50;4964367;28;20338;-81
2023/09/25 09:08:05;;;;;;;;;;;;;;;6.09;100.00;100319.88;4971097;28;19918;-82
2023/09/25 09:10:34;;;;;;;;;;;;;;;6.28;100.00;100320.44;4954654;28;20337;-80
2023/09/25 09:12:59;;;;;;;;;;;;;;;6.19;100.00;100324.13;4954324;28;19925;-80
2023/09/25 09:15:28;;;;;;;;;;;;;;;6.27;100.00;100322.22;4953681;28;19918;-81
2023/09/25 09:17:54;;;;;;;;;;;;;;;6.23;100.00;100320.50;4964132;28;20382;-80
2023/09/25 09:20:21;;;;;;;;;;;;;;;6.20;100.00;100330.22;4954424;28;19918;-79
2023/09/25 09:22:51;;;;;;;;;;;;;;;6.15;100.00;100325.03;4954930;28;19918;-80
2023/09/25 09:25:16;;;;;;;;;;;;;;;6.16;100.00;100319.75;4964275;28;19918;-82
2023/09/25 09:27:44;;;;;;;;;;;;;;;6.28;100.00;100317.81;4963682;28;19929;-80
2023/09/25 09:30:19;;;;;;;;;;;;;;;6.23;100.00;100310.00;4953189;28;19926;-81
2023/09/25 09:32:47;;;;;;;;;;;;;;;6.30;100.00;100314.28;4964728;28;19918;-80
2023/09/25 09:35:14;;;;;;;;;;;;;;;6.27;100.00;100316.94;4963946;28;20389;-81
2023/09/25 09:37:39;;;;;;;;;;;;;;;6.45;100.00;100312.28;4954587;28;19918;-81
2023/09/25 09:40:11;;;;;;;;;;;;;;;6.28;100.00;100305.50;4953735;28;19925;-81
2023/09/25 09:42:36;;;;;;;;;;;;;;;6.36;100.00;100295.72;4964512;28;19915;-80
2023/09/25 09:45:02;;;;;;;;;;;;;;;6.45;100.00;100299.09;4952672;28;19922;-81
2023/09/25 09:47:28;;;;;;;;;;;;;;;6.29;100.00;100299.38;4964139;28;20277;-81
2023/09/25 09:49:54;;;;;;;;;;;;;;;6.30;100.00;100298.47;4954033;28;19930;-80
2023/09/25 09:52:20;;;;;;;;;;;;;;;6.23;100.00;100295.97;4953757;28;19946;-81
2023/09/25 09:54:47;;;;;;;;;;;;;;;6.11;100.00;100294.41;4963660;28;20386;-80
2023/09/25 09:57:13;;;;;;;;;;;;;;;6.27;100.00;100285.38;4962194;28;19925;-80
2023/09/25 09:59:38;;;;;;;;;;;;;;;6.34;100.00;100288.75;4962071;28;19918;-80
2023/09/25 10:02:04;;;;;;;;;;;;;;;6.27;100.00;100287.09;4949448;28;19922;-80
2023/09/25 10:04:30;;;;;;;;;;;;;;;6.28;100.00;100281.81;4954473;28;20285;-81
2023/09/25 10:07:00;;;;;;;;;;;;;;;6.30;100.00;100279.16;4953656;28;19914;-81
2023/09/25 10:09:25;;;;;;;;;;;;;;;6.42;100.00;100278.09;4954110;28;20009;-81
2023/09/25 10:11:54;;;;;;;;;;;;;;;6.36;100.00;100269.38;4963230;28;20013;-81
2023/09/25 10:14:23;;;;;;;;;;;;;;;6.44;100.00;100268.41;4968478;28;20310;-81
2023/09/25 10:16:52;;;;;;;;;;;;;;;6.41;100.00;100265.81;4954505;28;19941;-81
2023/09/25 10:19:21;;;;;;;;;;;;;;;6.40;100.00;100274.59;4954280;28;20021;-82
2023/09/25 10:22:05;;;;;;;;;;;;;;;6.42;100.00;100267.56;4953814;28;19919;-80
2023/09/25 10:24:30;;;;;;;;;;;;;;;6.31;100.00;100271.25;4953822;28;19922;-80
2023/09/25 10:26:56;;;;;;;;;;;;;;;6.60;100.00;100274.25;4953703;28;20271;-84
2023/09/25 10:29:22;;;;;;;;;;;;;;;6.50;100.00;100279.69;4961952;28;20360;-82
2023/09/25 10:31:47;;;;;;;;;;;;;;;6.64;100.00;100284.69;4963388;28;19923;-81
2023/09/25 10:34:13;;;;;;;;;;;;;;;6.46;100.00;100275.38;4963101;28;20310;-81
2023/09/25 10:36:42;;;;;;;;;;;;;;;6.45;100.00;100270.16;4963348;28;19914;-82
2023/09/25 10:39:08;;;;;;;;;;;;;;;6.66;100.00;100269.72;4966349;28;20017;-80
2023/09/25 10:41:33;;;;;;;;;;;;;;;6.40;100.00;100266.72;4966771;28;19922;-81
2023/09/25 10:43:59;;;;;;;;;;;;;;;6.54;100.00;100272.59;4965713;28;19918;-80
2023/09/25 10:46:25;;;;;;;;;;;;;;;6.43;100.00;100264.03;4966806;28;20334;-80
2023/09/25 10:48:50;;;;;;;;;;;;;;;6.41;100.00;100263.19;4967063;28;20077;-81
2023/09/25 10:51:16;;;;;;;;;;;;;;;6.49;100.00;100264.81;4966996;28;19941;-82
2023/09/25 10:53:43;;;;;;;;;;;;;;;6.48;100.00;100268.31;4966592;28;19918;-84
2023/09/25 10:56:11;;;;;;;;;;;;;;;6.42;100.00;100264.94;4966573;28;19922;-81
2023/09/25 10:58:36;;;;;;;;;;;;;;;6.43;100.00;100269.28;4966699;28;20293;-80
2023/09/25 11:01:02;;;;;;;;;;;;;;;6.50;100.00;100270.91;4965293;28;19919;-81
2023/09/25 11:03:27;;;;;;;;;;;;;;;6.40;100.00;100264.97;4966039;28;19922;-83
2023/09/25 11:05:53;;;;;;;;;;;;;;;6.49;100.00;100274.44;4967013;28;19929;-83
2023/09/25 11:08:19;;;;;;;;;;;;;;;6.46;100.00;100269.22;4967463;28;20338;-82
2023/09/25 11:10:45;;;;;;;;;;;;;;;6.45;100.00;100264.88;4966393;28;19953;-80
2023/09/25 11:13:11;;;;;;;;;;;;;;;6.45;100.00;100262.25;4966432;28;19918;-80
2023/09/25 11:15:37;;;;;;;;;;;;;;;6.60;100.00;100254.03;4964918;28;20005;-82
2023/09/25 11:18:03;;;;;;;;;;;;;;;6.59;100.00;100257.59;4967346;28;19925;-81
2023/09/25 11:20:32;;;;;;;;;;;;;;;6.74;100.00;100259.06;4966156;28;19919;-81
2023/09/25 11:23:05;;;;;;;;;;;;;;;6.46;100.00;100263.97;4966386;28;19922;-85
2023/09/25 11:25:31;;;;;;;;;;;;;;;6.60;100.00;100261.09;4965874;28;20333;-82
2023/09/25 11:27:57;;;;;;;;;;;;;;;6.49;100.00;100262.16;4966704;28;19977;-83
2023/09/25 11:30:26;;;;;;;;;;;;;;;6.48;100.00;100256.94;4964957;28;20008;-86
2023/09/25 11:32:52;;;;;;;;;;;;;;;6.60;100.00;100251.41;4966203;28;19973;-81
2023/09/25 11:35:18;;;;;;;;;;;;;;;6.39;100.00;100255.31;4966481;28;19922;-80
2023/09/25 11:38:01;;;;;;;;;;;;;;;6.43;100.00;100253.50;4966665;28;20282;-81
2023/09/25 11:40:27;;;;;;;;;;;;;;;6.45;100.00;100254.34;4966552;28;19922;-82
2023/09/25 11:42:52;;;;;;;;;;;;;;;6.44;100.00;100266.63;4966019;28;19921;-80
2023/09/25 11:45:18;;;;;;;;;;;;;;;6.33;100.00;100258.06;4964435;28;19922;-81
2023/09/25 11:47:43;;;;;;;;;;;;;;;6.53;100.00;100255.94;4966191;28;20013;-82
2023/09/25 11:50:11;;;;;;;;;;;;;;;6.64;100.00;100253.09;4965264;28;20542;-81
2023/09/25 11:52:37;;;;;;;;;;;;;;;6.50;100.00;100249.88;4966085;28;19919;-81
2023/09/25 11:55:04;;;;;;;;;;;;;;;6.60;100.00;100245.28;4965572;28;20281;-82
2023/09/25 11:57:29;;;;;;;;;;;;;;;6.53;100.00;100244.53;4965848;28;19933;-80
2023/09/25 11:59:54;;;;;;;;;;;;;;;6.62;100.00;100240.84;4964418;28;19929;-81
2023/09/25 12:02:20;;;;;;;;;;;;;;;6.66;100.00;100248.66;4965024;28;19933;-80
2023/09/25 12:04:45;;;;;;;;;;;;;;;6.59;100.00;100244.44;4965419;28;19918;-81
2023/09/25 12:07:11;;;;;;;;;;;;;;;6.61;100.00;100245.25;4956403;28;20009;-82
2023/09/25 12:09:36;;;;;;;;;;;;;;;6.53;100.00;100249.81;4965570;28;19966;-81
2023/09/25 12:12:03;;;;;;;;;;;;;;;6.59;100.00;100246.19;4964999;28;19922;-81
2023/09/25 12:14:28;;;;;;;;;;;;;;;6.60;100.00;100243.50;4954581;28;19918;-81
2023/09/25 12:16:53;;;;;;;;;;;;;;;6.47;100.00;100245.50;4965418;28;19929;-81
2023/09/25 12:19:19;;;;;;;;;;;;;;;6.52;100.00;100245.44;4964895;28;19921;-80
2023/09/25 12:21:44;;;;;;;;;;;;;;;6.72;100.00;100252.97;4955485;28;19925;-82
2023/09/25 12:24:09;;;;;;;;;;;;;;;6.70;100.00;100250.34;4964766;28;19969;-81
2023/09/25 12:26:36;;;;;;;;;;;;;;;6.69;100.00;100253.88;4964767;28;19918;-84
2023/09/25 12:29:02;;;;;;;;;;;;;;;6.66;100.00;100245.19;4953922;28;19999;-81
2023/09/25 12:31:27;;;;;;;;;;;;;;;6.59;100.00;100254.06;4964973;28;19918;-80
2023/09/25 12:33:52;;;;;;;;;;;;;;;6.42;100.00;100238.63;4965102;28;19926;-84
2023/09/25 12:36:18;;;;;;;;;;;;;;;6.57;100.00;100240.06;4955285;28;20049;-81
2023/09/25 12:38:43;;;;;;;;;;;;;;;6.64;100.00;100241.72;4964732;28;19926;-81
2023/09/25 12:41:08;;;;;;;;;;;;;;;6.55;100.00;100238.31;4964932;28;20016;-81
2023/09/25 12:43:34;;;;;;;;;;;;;;;6.46;100.00;100237.63;4964783;28;20597;-82
2023/09/25 12:45:59;;;;;;;;;;;;;;;6.66;100.00;100243.41;4963442;28;19918;-82
2023/09/25 12:48:25;;;;;;;;;;;;;;;6.61;100.00;100247.03;4964277;28;19926;-82
2023/09/25 12:50:50;;;;;;;;;;;;;;;6.88;100.00;100248.25;4964948;28;20005;-81
2023/09/25 12:53:16;;;;;;;;;;;;;;;6.52;100.00;100242.78;4964639;28;20025;-81
2023/09/25 12:55:41;;;;;;;;;;;;;;;6.77;100.00;100247.59;4964270;28;19919;-82
2023/09/25 12:58:06;;;;;;;;;;;;;;;6.88;100.00;100245.63;4964194;28;19972;-82
2023/09/25 13:00:32;;;;;;;;;;;;;;;6.60;100.00;100243.50;4953448;28;19918;-81
2023/09/25 13:02:57;;;;;;;;;;;;;;;6.79;100.00;100240.53;4963627;28;19926;-82
2023/09/25 13:05:22;;;;;;;;;;;;;;;6.85;100.00;100238.63;4964794;28;20448;-84
2023/09/25 13:07:48;;;;;;;;;;;;;;;6.73;100.00;100238.88;4954861;28;20297;-82
2023/09/25 13:10:14;;;;;;;;;;;;;;;6.89;100.00;100232.41;4964229;28;19918;-82
2023/09/25 13:12:39;;;;;;;;;;;;;;;6.69;100.00;100232.81;4964600;28;20366;-81
2023/09/25 13:15:06;;;;;;;;;;;;;;;6.62;100.00;100228.56;4963114;28;19926;-81
2023/09/25 13:17:32;;;;;;;;;;;;;;;6.78;100.00;100230.88;4965376;28;19940;-81
2023/09/25 13:19:59;;;;;;;;;;;;;;;6.86;100.00;100226.31;4964817;28;20437;-84
2023/09/25 13:22:24;;;;;;;;;;;;;;;6.88;100.00;100230.66;4955349;28;19914;-81
2023/09/25 13:24:49;;;;;;;;;;;;;;;6.87;100.00;100222.78;4964515;28;20201;-80
2023/09/25 13:27:15;;;;;;;;;;;;;;;6.84;100.00;100223.72;4963998;28;20420;-82
2023/09/25 13:29:40;;;;;;;;;;;;;;;6.82;100.00;100225.53;4963155;28;19925;-83
2023/09/25 13:32:06;;;;;;;;;;;;;;;6.67;100.00;100217.91;4964747;28;19922;-80
2023/09/25 13:34:31;;;;;;;;;;;;;;;6.73;100.00;100216.06;4963649;28;19973;-80
2023/09/25 13:36:57;;;;;;;;;;;;;;;6.75;100.00;100218.66;4954622;28;19926;-81
2023/09/25 13:39:22;;;;;;;;;;;;;;;6.70;100.00;100221.38;4964535;28;20376;-82
2023/09/25 13:41:48;;;;;;;;;;;;;;;6.77;100.00;100216.84;4964888;28;20409;-82
2023/09/25 13:44:13;;;;;;;;;;;;;;;6.98;100.00;100212.91;4962712;28;20021;-82
2023/09/25 13:46:38;;;;;;;;;;;;;;;6.89;100.00;100216.59;4963775;28;20377;-82
2023/09/25 13:49:05;;;;;;;;;;;;;;;6.85;100.00;100219.34;4963934;28;20005;-83
2023/09/25 13:51:30;;;;;;;;;;;;;;;6.75;100.00;100215.13;4963759;28;19922;-81
2023/09/25 13:53:58;;;;;;;;;;;;;;;6.84;100.00;100207.06;4964388;28;20353;-83
2023/09/25 13:56:23;;;;;;;;;;;;;;;6.63;100.00;100211.84;4963585;28;20366;-83
2023/09/25 13:58:50;;;;;;;;;;;;;;;6.65;100.00;100210.09;4962674;28;19978;-82
2023/09/25 14:01:15;;;;;;;;;;;;;;;6.59;100.00;100202.28;4946800;28;19919;-83
2023/09/25 14:03:40;;;;;;;;;;;;;;;6.62;100.00;100204.88;4954197;28;19965;-80
2023/09/25 14:06:07;;;;;;;;;;;;;;;6.84;100.00;100201.78;4963860;28;19965;-84
2023/09/25 14:08:32;;;;;;;;;;;;;;;6.61;100.00;100203.13;4963600;28;20022;-84
2023/09/25 14:10:58;;;;;;;;;;;;;;;6.68;100.00;100199.47;4963925;28;20002;-82
2023/09/25 14:13:24;;;;;;;;;;;;;;;6.79;100.00;100190.47;4965494;28;20532;-84
2023/09/25 14:15:49;;;;;;;;;;;;;;;6.76;100.00;100201.09;4966683;28;19922;-80
2023/09/25 14:18:14;;;;;;;;;;;;;;;6.71;100.00;100204.66;4967404;28;20289;-83
2023/09/25 14:20:40;;;;;;;;;;;;;;;6.71;100.00;100201.16;4967020;28;20298;-85
2023/09/25 14:23:05;;;;;;;;;;;;;;;6.58;100.00;100202.34;4957701;28;19918;-85
2023/09/25 14:25:30;;;;;;;;;;;;;;;6.69;100.00;100202.97;4967801;28;20021;-89
2023/09/25 14:27:56;;;;;;;;;;;;;;;6.66;100.00;100198.63;4967374;28;19918;-84
2023/09/25 14:30:21;;;;;;;;;;;;;;;6.76;100.00;100204.56;4966621;28;19930;-84
2023/09/25 14:32:46;;;;;;;;;;;;;;;6.71;100.00;100207.28;4967418;28;19919;-86
2023/09/25 14:35:11;;;;;;;;;;;;;;;7.22;100.00;100214.13;4966759;28;19923;-83
2023/09/25 14:37:38;;;;;;;;;;;;;;;7.39;100.00;100213.75;4967762;28;20382;-82
2023/09/25 14:40:04;;;;;;;;;;;;;;;7.80;100.00;100211.91;4966663;28;19923;-82
2023/09/25 14:42:32;;;;;;;;;;;;;;;8.58;100.00;100212.56;4967352;28;19972;-81
2023/09/25 14:44:57;;;;;;;;;;;;;;;6.67;100.00;100207.38;4965425;28;19918;-81
2023/09/25 14:47:22;;;;;;;;;;;;;;;5.76;100.00;100209.91;4966865;28;19929;-81
2023/09/25 14:49:52;;;;;;;;;;;;;;;5.38;100.00;100205.25;4957469;28;19949;-81
2023/09/25 14:52:17;;;;;;;;;;;;;;;5.14;100.00;100194.19;4973340;28;19924;-79
2023/09/25 14:54:42;;;;;;;;;;;;;;;4.89;100.00;100191.03;4967035;28;20021;-81
2023/09/25 14:57:08;;;;;;;;;;;;;;;4.80;100.00;100188.50;4956996;28;19957;-81
2023/09/25 14:59:33;;;;;;;;;;;;;;;4.84;100.00;100191.06;4955679;28;19926;-81
2023/09/25 15:01:58;;;;;;;;;;;;;;;4.65;100.00;100198.31;4966420;28;19929;-80
2023/09/25 15:04:23;;;;;;;;;;;;;;;4.79;100.00;100199.91;4966859;28;20432;-81
2023/09/25 15:06:49;;;;;;;;;;;;;;;4.64;100.00;100198.31;4966644;28;20255;-80
2023/09/25 15:09:14;;;;;;;;;;;;;;;4.60;100.00;100205.38;4966436;28;20009;-81
2023/09/25 15:11:39;;;;;;;;;;;;;;;4.63;100.00;100201.88;4966734;28;19949;-81
2023/09/25 15:14:05;;;;;;;;;;;;;;;4.66;100.00;100207.03;4964064;28;19922;-81
2023/09/25 15:16:30;;;;;;;;;;;;;;;4.64;100.00;100206.19;4956562;28;19926;-81
2023/09/25 15:18:56;;;;;;;;;;;;;;;4.51;100.00;100208.97;4966902;28;20366;-81
2023/09/25 15:21:21;;;;;;;;;;;;;;;4.50;100.00;100211.59;4955149;28;19973;-81
2023/09/25 15:23:47;;;;;;;;;;;;;;;4.49;100.00;100216.00;4955978;28;20008;-80
2023/09/25 15:26:12;;;;;;;;;;;;;;;4.47;100.00;100217.78;4954925;28;19919;-81
2023/09/25 15:28:37;;;;;;;;;;;;;;;4.48;100.00;100218.63;4956021;28;20388;-81
2023/09/25 15:31:03;;;;;;;;;;;;;;;4.48;100.00;100216.00;4964037;28;20303;-79
2023/09/25 15:33:28;;;;;;;;;;;;;;;4.43;100.00;100216.06;4965745;28;19927;-80
2023/09/25 15:35:54;;;;;;;;;;;;;;;4.42;100.00;100214.34;4966596;28;19926;-79
2023/09/25 15:38:19;;;;;;;;;;;;;;;4.42;100.00;100213.44;4956469;28;20390;-79
2023/09/25 15:40:45;;;;;;;;;;;;;;;4.39;100.00;100217.00;4965655;28;20020;-79
2023/09/25 15:43:10;;;;;;;;;;;;;;;4.37;100.00;100213.50;4956391;28;19925;-79
2023/09/25 15:45:35;;;;;;;;;;;;;;;4.36;100.00;100203.91;4965046;28;19923;-81
2023/09/25 15:48:04;;;;;;;;;;;;;;;4.35;100.00;100207.41;4956292;28;19918;-81
2023/09/25 15:50:29;;;;;;;;;;;;;;;4.35;100.00;100200.38;4956238;28;19929;-86
2023/09/25 15:52:55;;;;;;;;;;;;;;;4.31;100.00;100201.31;4964061;28;19919;-80
2023/09/25 15:55:20;;;;;;;;;;;;;;;4.37;100.00;100189.88;4965665;28;19918;-80
2023/09/25 15:57:46;;;;;;;;;;;;;;;4.36;100.00;100193.41;4966000;28;20271;-81
2023/09/25 16:00:11;;;;;;;;;;;;;;;4.33;100.00;100201.31;4964428;28;19918;-81
2023/09/25 16:02:37;;;;;;;;;;;;;;;4.37;100.00;100203.00;4955583;28;20242;-80
2023/09/25 16:05:02;;;;;;;;;;;;;;;4.23;100.00;100205.78;4965707;28;19918;-83
2023/09/25 16:07:28;;;;;;;;;;;;;;;4.21;100.00;100204.06;4965813;28;19918;-81
2023/09/25 16:09:53;;;;;;;;;;;;;;;4.22;100.00;100192.69;4965494;28;20012;-80
2023/09/25 16:12:19;;;;;;;;;;;;;;;4.14;100.00;100198.00;4966942;28;19918;-80
2023/09/25 16:14:44;;;;;;;;;;;;;;;4.21;100.00;100189.16;4964260;28;19919;-80
2023/09/25 16:17:11;;;;;;;;;;;;;;;4.24;100.00;100193.53;4965083;28;20021;-80
2023/09/25 16:19:36;;;;;;;;;;;;;;;4.14;100.00;100198.88;4965267;28;19922;-80
2023/09/25 16:22:01;;;;;;;;;;;;;;;4.16;100.00;100196.22;4955845;28;19919;-79
2023/09/25 16:24:27;;;;;;;;;;;;;;;4.16;100.00;100199.75;4964807;28;19925;-80
2023/09/25 16:26:52;;;;;;;;;;;;;;;4.14;100.00;100198.88;4955266;28;19926;-80
2023/09/25 16:29:20;;;;;;;;;;;;;;;4.09;100.00;100192.81;4964511;28;19918;-80
2023/09/25 16:31:46;;;;;;;;;;;;;;;4.08;100.00;100200.69;4940107;28;19961;-80
2023/09/25 16:34:11;;;;;;;;;;;;;;;4.12;100.00;100195.41;4955660;28;19977;-81
2023/09/25 16:36:36;;;;;;;;;;;;;;;4.17;100.00;100197.97;4964475;28;20393;-80
2023/09/25 16:39:03;;;;;;;;;;;;;;;4.23;100.00;100207.53;4964853;28;20008;-81
2023/09/25 16:41:28;;;;;;;;;;;;;;;4.17;100.00;100206.72;4964638;28;19918;-81
2023/09/25 16:43:54;;;;;;;;;;;;;;;4.23;100.00;100204.91;4954030;28;19964;-81
2023/09/25 16:46:19;;;;;;;;;;;;;;;4.24;100.00;100214.53;4964856;28;19966;-83
2023/09/25 16:48:44;;;;;;;;;;;;;;;4.25;100.00;100216.28;4964664;28;19918;-80
2023/09/25 16:51:09;;;;;;;;;;;;;;;4.50;100.00;100209.88;4965209;28;19981;-81
2023/09/25 16:53:35;;;;;;;;;;;;;;;4.71;100.00;100221.00;4964650;28;19997;-81
2023/09/25 16:56:02;;;;;;;;;;;;;;;4.91;100.00;100208.50;4964277;28;20285;-80
2023/09/25 16:58:29;;;;;;;;;;;;;;;5.07;100.00;100216.16;4964466;28;19918;-81
2023/09/25 17:00:54;;;;;;;;;;;;;;;5.22;100.00;100217.72;4963257;28;19929;-81
2023/09/25 17:03:19;;;;;;;;;;;;;;;5.32;100.00;100221.09;4964986;28;20281;-79
2023/09/25 17:05:45;;;;;;;;;;;;;;;5.33;100.00;100230.69;4963784;28;19922;-81
2023/09/25 17:08:10;;;;;;;;;;;;;;;5.43;100.00;100229.69;4964864;28;19918;-80
2023/09/25 17:10:36;;;;;;;;;;;;;;;5.43;100.00;100222.66;4964011;28;20400;-82
2023/09/25 17:13:02;;;;;;;;;;;;;;;5.49;100.00;100226.97;4964507;28;20482;-81
2023/09/25 17:15:32;;;;;;;;;;;;;;;5.55;100.00;100231.25;4966858;28;20005;-80
2023/09/25 17:17:57;;;;;;;;;;;;;;;5.50;100.00;100227.84;4964520;28;19925;-80
2023/09/25 17:20:23;;;;;;;;;;;;;;;5.55;100.00;100237.41;4954901;28;19922;-80
2023/09/25 17:22:48;;;;;;;;;;;;;;;5.62;100.00;100236.41;4964125;28;20404;-80
2023/09/25 17:25:14;;;;;;;;;;;;;;;5.64;100.00;100231.97;4963874;28;20832;-82
2023/09/25 17:27:39;;;;;;;;;;;;;;;5.73;100.00;100238.00;4964696;28;19966;-81
2023/09/25 17:30:04;;;;;;;;;;;;;;;5.68;100.00;100226.66;4962781;28;19922;-81
2023/09/25 17:32:31;;;;;;;;;;;;;;;5.72;100.00;100226.59;4954592;28;20307;-81
2023/09/25 17:34:57;;;;;;;;;;;;;;;5.79;100.00;100230.00;4964130;28;19976;-82
2023/09/25 17:37:22;;;;;;;;;;;;;;;5.73;100.00;100227.50;4954862;28;19921;-82
2023/09/25 17:39:47;;;;;;;;;;;;;;;5.77;100.00;100229.16;4954211;28;20385;-81
2023/09/25 17:42:12;;;;;;;;;;;;;;;5.74;100.00;100223.94;4963600;28;20266;-79
2023/09/25 17:44:38;;;;;;;;;;;;;;;5.78;100.00;100226.50;4952978;28;19925;-82
2023/09/25 17:47:03;;;;;;;;;;;;;;;5.73;100.00;100233.59;4963613;28;19945;-80
2023/09/25 17:49:28;;;;;;;;;;;;;;;5.77;100.00;100237.03;4962495;28;19918;-81
2023/09/25 17:51:54;;;;;;;;;;;;;;;5.86;100.00;100233.41;4963134;28;20281;-82
2023/09/25 17:54:19;;;;;;;;;;;;;;;5.81;100.00;100238.75;4963387;28;19918;-81
2023/09/25 17:56:44;;;;;;;;;;;;;;;5.85;100.00;100239.56;4964078;28;19973;-80
2023/09/25 17:59:09;;;;;;;;;;;;;;;5.83;100.00;100243.06;4962365;28;20013;-80
2023/09/25 18:01:35;;;;;;;;;;;;;;;5.86;100.00;100244.78;4953909;28;19930;-80
2023/09/25 18:04:02;;;;;;;;;;;;;;;5.90;100.00;100246.47;4963371;28;19923;-81
2023/09/25 18:06:27;;;;;;;;;;;;;;;5.92;100.00;100244.69;4953585;28;19996;-80
2023/09/25 18:08:52;;;;;;;;;;;;;;;5.86;100.00;100250.06;4953659;28;19922;-80
2023/09/25 18:11:17;;;;;;;;;;;;;;;5.95;100.00;100252.53;4963013;28;20421;-81
2023/09/25 18:13:43;;;;;;;;;;;;;;;5.93;100.00;100249.03;4962548;28;19930;-81
2023/09/25 18:16:08;;;;;;;;;;;;;;;6.00;100.00;100256.00;4951598;28;19953;-81
2023/09/25 18:18:33;;;;;;;;;;;;;;;6.00;100.00;100255.13;4953219;28;20370;-81
2023/09/25 18:20:59;;;;;;;;;;;;;;;6.06;100.00;100259.41;4962878;28;19918;-80
2023/09/25 18:23:25;;;;;;;;;;;;;;;6.01;100.00;100262.09;4952761;28;20005;-81
2023/09/25 18:25:50;;;;;;;;;;;;;;;6.00;100.00;100271.78;4952441;28;20024;-80
2023/09/25 18:28:16;;;;;;;;;;;;;;;6.07;100.00;100272.53;4962158;28;19919;-80
2023/09/25 18:30:41;;;;;;;;;;;;;;;6.01;100.00;100277.91;4961662;28;19923;-81
2023/09/25 18:33:09;;;;;;;;;;;;;;;6.06;100.00;100280.44;4962167;28;20379;-80
2023/09/25 18:35:35;;;;;;;;;;;;;;;6.06;100.00;100277.81;4963152;28;19918;-80
2023/09/25 18:38:00;;;;;;;;;;;;;;;6.07;100.00;100271.69;4961984;28;19922;-80
2023/09/25 18:40:26;;;;;;;;;;;;;;;6.15;100.00;100272.41;4962699;28;19926;-80
2023/09/25 18:42:51;;;;;;;;;;;;;;;6.10;100.00;100276.88;4962583;28;19923;-80
2023/09/25 18:45:16;;;;;;;;;;;;;;;6.05;100.00;100276.06;4960984;28;20036;-80
2023/09/25 18:47:42;;;;;;;;;;;;;;;6.05;100.00;100276.06;4962364;28;19929;-81
2023/09/25 18:50:07;;;;;;;;;;;;;;;6.14;100.00;100276.81;4961863;28;20061;-81
2023/09/25 18:52:34;;;;;;;;;;;;;;;6.17;100.00;100266.25;4962419;28;19980;-81
2023/09/25 18:55:00;;;;;;;;;;;;;;;6.10;100.00;100271.63;4962010;28;19929;-81
2023/09/25 18:57:25;;;;;;;;;;;;;;;6.12;100.00;100269.84;4962301;28;20285;-80
2023/09/25 18:59:50;;;;;;;;;;;;;;;6.11;100.00;100265.44;4953842;28;19961;-81
2023/09/25 19:02:15;;;;;;;;;;;;;;;6.13;100.00;100264.53;4893171;28;1830864;-81
2023/09/25 19:04:40;;;;;;;;;;;;;;;6.14;100.00;100273.28;4967033;28;20472;-81
2023/09/25 19:07:06;;;;;;;;;;;;;;;6.13;100.00;100271.59;4966528;28;20298;-81
2023/09/25 19:09:32;;;;;;;;;;;;;;;6.17;100.00;100273.25;4966251;28;19922;-81
2023/09/25 19:11:57;;;;;;;;;;;;;;;6.17;100.00;100268.88;4966863;28;19918;-81
2023/09/25 19:14:22;;;;;;;;;;;;;;;6.20;100.00;100270.56;4965298;28;20500;-81
2023/09/25 19:16:47;;;;;;;;;;;;;;;6.18;100.00;100269.72;4956910;28;20436;-81
2023/09/25 19:19:13;;;;;;;;;;;;;;;6.22;100.00;100265.28;4966577;28;20000;-81
2023/09/25 19:21:38;;;;;;;;;;;;;;;6.18;100.00;100275.00;4966309;28;20413;-81
2023/09/25 19:24:03;;;;;;;;;;;;;;;6.16;100.00;100271.53;4965845;28;20281;-82
2023/09/25 19:26:29;;;;;;;;;;;;;;;6.16;100.00;100282.06;4966568;28;20010;-81
2023/09/25 19:28:55;;;;;;;;;;;;;;;6.24;100.00;100271.38;4955386;28;19925;-81
2023/09/25 19:31:20;;;;;;;;;;;;;;;6.20;100.00;100272.34;4966015;28;19923;-81
2023/09/25 19:33:46;;;;;;;;;;;;;;;6.18;100.00;100275.84;4965906;28;19929;-82
2023/09/25 19:36:11;;;;;;;;;;;;;;;6.20;100.00;100282.88;4966308;28;20021;-80
2023/09/25 19:38:36;;;;;;;;;;;;;;;6.18;100.00;100280.25;4965907;28;20350;-80
2023/09/25 19:41:02;;;;;;;;;;;;;;;6.23;100.00;100282.81;4965840;28;19919;-81
2023/09/25 19:43:27;;;;;;;;;;;;;;;6.22;100.00;100286.31;4965976;28;19918;-82
2023/09/25 19:45:52;;;;;;;;;;;;;;;6.16;100.00;100289.94;4965064;28;19926;-81
2023/09/25 19:48:18;;;;;;;;;;;;;;;6.20;100.00;100283.72;4965744;28;19922;-80
2023/09/25 19:50:43;;;;;;;;;;;;;;;6.17;100.00;100291.66;4965494;28;20392;-81
2023/09/25 19:53:09;;;;;;;;;;;;;;;6.18;100.00;100285.53;4965917;28;19926;-80
2023/09/25 19:55:34;;;;;;;;;;;;;;;6.26;100.00;100288.03;4966026;28;19945;-80
2023/09/25 19:57:59;;;;;;;;;;;;;;;6.20;100.00;100288.13;4965591;28;19918;-80
2023/09/25 20:00:24;;;;;;;;;;;;;;;6.20;100.00;100288.97;4964004;28;19961;-80
2023/09/25 20:02:50;;;;;;;;;;;;;;;6.15;100.00;100296.94;4965385;28;20263;-82
2023/09/25 20:05:15;;;;;;;;;;;;;;;6.20;100.00;100285.50;4965866;28;19922;-81
2023/09/25 20:07:41;;;;;;;;;;;;;;;6.20;100.00;100294.25;4965716;28;19922;-83
2023/09/25 20:10:07;;;;;;;;;;;;;;;6.20;100.00;100294.25;4964688;28;19919;-82
2023/09/25 20:12:32;;;;;;;;;;;;;;;6.23;100.00;100288.06;4965565;28;19925;-81
2023/09/25 20:14:58;;;;;;;;;;;;;;;6.24;100.00;100300.31;4964237;28;20468;-81
2023/09/25 20:17:23;;;;;;;;;;;;;;;6.21;100.00;100290.72;4965291;28;20351;-81
2023/09/25 20:19:48;;;;;;;;;;;;;;;6.24;100.00;100302.94;4965070;28;20493;-80
2023/09/25 20:22:13;;;;;;;;;;;;;;;6.18;100.00;100291.63;4965733;28;19981;-81
2023/09/25 20:24:39;;;;;;;;;;;;;;;6.26;100.00;100295.91;4965132;28;19930;-82
2023/09/25 20:27:04;;;;;;;;;;;;;;;6.21;100.00;100296.00;4964545;28;20361;-81
2023/09/25 20:29:29;;;;;;;;;;;;;;;6.24;100.00;100300.31;4964033;28;19922;-81